createdAt,value
2023-05-02T00:00:41.503Z,10.10
2023-05-02T00:05:43.463Z,10.20
2023-05-02T00:10:45.087Z,10.00
2023-05-02T00:15:46.642Z,10.00
2023-05-02T00:20:48.429Z,10.00
2023-05-02T00:25:50.195Z,10.00
2023-05-02T00:30:51.824Z,10.20
2023-05-02T00:35:53.548Z,10.20
2023-05-02T00:40:55.331Z,10.10
2023-05-02T00:45:56.892Z,10.20
2023-05-02T00:50:58.883Z,10.20
2023-05-02T00:56:01.878Z,10.10
2023-05-02T01:01:27.177Z,10.30
2023-05-02T01:06:31.944Z,10.20
2023-05-02T01:11:44.858Z,10.20
2023-05-02T01:16:47.078Z,10.20
2023-05-02T01:21:49.063Z,10.30
2023-05-02T01:26:50.657Z,10.40
2023-05-02T01:31:52.373Z,10.40
2023-05-02T01:36:54.453Z,10.50
2023-05-02T01:41:56.823Z,10.40
2023-05-02T01:46:58.885Z,10.60
2023-05-02T01:52:05.532Z,10.70
2023-05-02T01:57:08.666Z,10.90
2023-05-02T02:02:12.909Z,11.10
2023-05-02T02:07:14.756Z,11.30
2023-05-02T02:12:21.971Z,11.20
2023-05-02T02:17:30.028Z,11.30
2023-05-02T02:22:34.417Z,11.20
2023-05-02T02:27:37.150Z,11.30
2023-05-02T02:32:39.145Z,11.20
2023-05-02T02:38:07.464Z,11.20
2023-05-02T02:43:21.442Z,11.20
2023-05-02T02:48:30.257Z,11.20
2023-05-02T02:53:46.796Z,11.20
2023-05-02T02:59:05.082Z,11.10
2023-05-02T03:04:08.830Z,11.10
2023-05-02T03:09:18.624Z,11.00
2023-05-02T03:14:20.475Z,11.00
2023-05-02T03:19:22.173Z,11.00
2023-05-02T03:24:23.854Z,11.00
2023-05-02T03:29:26.207Z,11.00
2023-05-02T03:34:27.899Z,11.00
2023-05-02T03:39:29.561Z,11.00
2023-05-02T03:44:31.181Z,11.00
2023-05-02T03:49:36.218Z,10.90
2023-05-02T03:54:37.901Z,10.90
2023-05-02T03:59:42.995Z,10.90
2023-05-02T04:04:44.821Z,10.90
2023-05-02T04:09:46.740Z,10.80
2023-05-02T04:14:48.496Z,10.70
2023-05-02T04:19:51.349Z,10.70
2023-05-02T04:24:54.772Z,10.70
2023-05-02T04:29:56.603Z,10.70
2023-05-02T04:34:58.278Z,10.70
2023-05-02T04:40:00.476Z,10.70
2023-05-02T04:45:02.423Z,10.70
2023-05-02T04:50:04.348Z,10.70
2023-05-02T04:55:06.186Z,10.70
2023-05-02T05:00:08.301Z,10.70
2023-05-02T05:05:10.185Z,10.80
2023-05-02T05:10:11.958Z,10.80
2023-05-02T05:15:13.711Z,10.80
2023-05-02T05:20:15.419Z,10.80
2023-05-02T05:25:17.127Z,10.80
2023-05-02T05:30:20.839Z,10.80
2023-05-02T05:35:23.639Z,10.90
2023-05-02T05:40:25.460Z,10.80
2023-05-02T05:45:28.031Z,10.90
2023-05-02T05:50:30.870Z,10.80
2023-05-02T05:55:32.697Z,10.80
2023-05-02T06:00:35.877Z,10.70
2023-05-02T06:05:37.766Z,10.70
2023-05-02T06:10:39.396Z,10.70
2023-05-02T06:15:41.031Z,10.80
2023-05-02T06:20:42.753Z,10.80
2023-05-02T06:25:44.416Z,10.70
2023-05-02T06:30:46.161Z,10.80
2023-05-02T06:35:51.186Z,10.80
2023-05-02T06:40:52.857Z,11.30
2023-05-02T06:45:56.091Z,10.80
2023-05-02T06:50:57.816Z,10.90
2023-05-02T06:55:59.815Z,11.00
2023-05-02T07:01:01.546Z,11.00
2023-05-02T07:12:07.113Z,11.00
2023-05-02T07:17:09.481Z,11.10
2023-05-02T07:22:11.225Z,11.20
2023-05-02T07:27:13.349Z,11.30
2023-05-02T07:32:14.956Z,11.30
2023-05-02T07:37:16.813Z,11.30
2023-05-02T07:42:22.532Z,11.20
2023-05-02T07:47:24.483Z,11.20
2023-05-02T07:52:26.103Z,11.10
2023-05-02T07:57:27.772Z,10.90
2023-05-02T08:02:29.770Z,10.90
2023-05-02T08:07:31.979Z,10.90
2023-05-02T08:12:40.097Z,10.90
2023-05-02T08:17:42.826Z,10.90
2023-05-02T08:22:48.532Z,10.90
2023-05-02T08:27:51.108Z,11.10
2023-05-02T08:32:55.132Z,11.10
2023-05-02T08:37:56.818Z,11.20
2023-05-02T08:42:58.553Z,11.10
2023-05-02T08:48:00.402Z,11.00
2023-05-02T08:53:07.367Z,11.00
2023-05-02T08:58:10.724Z,11.30
2023-05-02T09:03:16.544Z,11.40
2023-05-02T09:08:22.083Z,11.40
2023-05-02T09:13:37.148Z,11.00
2023-05-02T09:18:40.089Z,10.90
2023-05-02T09:23:46.098Z,10.90
2023-05-02T09:28:52.007Z,11.00
2023-05-02T09:33:54.131Z,11.10
2023-05-02T09:39:08.869Z,11.10
2023-05-02T09:44:12.503Z,11.00
2023-05-02T09:49:20.664Z,11.10
2023-05-02T09:54:36.334Z,11.20
2023-05-02T09:59:39.480Z,11.60
2023-05-02T10:04:42.067Z,11.80
2023-05-02T10:09:51.657Z,12.00
2023-05-02T10:14:57.943Z,11.80
2023-05-02T10:20:05.420Z,11.70
2023-05-02T10:25:08.487Z,11.60
2023-05-02T10:30:16.602Z,11.50
2023-05-02T10:35:19.071Z,11.50
2023-05-02T10:40:24.737Z,11.30
2023-05-02T10:45:36.740Z,11.20
2023-05-02T10:50:46.427Z,11.30
2023-05-02T10:56:09.317Z,11.40
2023-05-02T11:01:29.461Z,11.70
2023-05-02T11:06:37.508Z,11.70
2023-05-02T11:11:42.585Z,11.60
2023-05-02T11:17:07.207Z,11.70
2023-05-02T11:22:19.024Z,12.00
2023-05-02T11:27:30.348Z,12.10
2023-05-02T11:32:49.518Z,12.10
2023-05-02T11:37:55.448Z,12.20
2023-05-02T11:42:59.171Z,12.30
2023-05-02T11:53:31.217Z,12.40
2023-05-02T11:58:33.650Z,12.40
2023-05-02T12:03:40.772Z,12.60
2023-05-02T12:09:28.166Z,12.60
2023-05-02T12:14:30.277Z,12.90
2023-05-02T12:19:31.999Z,12.80
2023-05-02T12:24:34.324Z,12.80
2023-05-02T12:29:42.411Z,12.90
2023-05-02T12:34:44.261Z,13.00
2023-05-02T12:39:45.929Z,13.00
2023-05-02T12:45:15.243Z,13.00
2023-05-02T12:50:17.059Z,13.00
2023-05-02T12:55:19.742Z,12.80
2023-05-02T13:00:21.475Z,12.80
2023-05-02T13:05:27.563Z,12.80
2023-05-02T13:10:30.348Z,13.30
2023-05-02T13:15:31.999Z,13.30
2023-05-02T13:20:33.671Z,13.20
2023-05-02T13:25:35.688Z,13.70
2023-05-02T13:30:37.490Z,13.70
2023-05-02T13:35:39.193Z,13.60
2023-05-02T13:40:41.158Z,14.00
2023-05-02T13:45:48.777Z,14.50
2023-05-02T13:50:54.027Z,14.10
2023-05-02T13:56:23.763Z,14.40
2023-05-02T14:01:28.632Z,14.30
2023-05-02T14:06:32.017Z,14.20
2023-05-02T14:11:34.292Z,13.60
2023-05-02T14:16:36.278Z,13.80
2023-05-02T14:21:38.784Z,13.60
2023-05-02T14:26:41.732Z,13.60
2023-05-02T14:31:43.577Z,13.50
2023-05-02T14:36:45.454Z,13.40
2023-05-02T14:41:48.373Z,13.30
2023-05-02T14:46:54.007Z,13.40
2023-05-02T14:51:57.130Z,13.40
2023-05-02T14:57:03.904Z,13.40
2023-05-02T15:02:05.959Z,13.40
2023-05-02T15:07:08.025Z,13.50
2023-05-02T15:12:09.790Z,13.60
2023-05-02T15:17:13.109Z,13.80
2023-05-02T15:22:16.008Z,14.20
2023-05-02T15:27:17.863Z,14.10
2023-05-02T15:32:19.643Z,14.00
2023-05-02T15:37:21.380Z,13.60
2023-05-02T15:42:23.001Z,13.80
2023-05-02T15:47:28.848Z,13.90
2023-05-02T15:52:30.916Z,13.80
2023-05-02T15:57:33.509Z,13.90
2023-05-02T16:02:35.335Z,13.50
2023-05-02T16:07:37.087Z,13.20
2023-05-02T16:12:38.723Z,13.00
2023-05-02T16:17:42.951Z,12.90
2023-05-02T16:22:48.575Z,13.30
2023-05-02T16:27:50.538Z,13.30
2023-05-02T16:32:53.162Z,13.30
2023-05-02T16:37:54.847Z,13.20
2023-05-02T16:42:56.796Z,13.20
2023-05-02T16:47:58.550Z,13.20
2023-05-02T16:53:00.332Z,13.20
2023-05-02T16:58:02.050Z,13.00
2023-05-02T17:03:05.410Z,12.90
2023-05-02T17:08:09.146Z,12.70
2023-05-02T17:13:12.694Z,12.70
2023-05-02T17:18:14.377Z,12.50
2023-05-02T17:23:16.208Z,12.60
2023-05-02T17:28:18.052Z,12.60
2023-05-02T17:33:20.776Z,12.60
2023-05-02T17:38:24.509Z,12.60
2023-05-02T17:43:26.160Z,12.60
2023-05-02T17:48:28.186Z,12.50
2023-05-02T17:53:30.241Z,12.50
2023-05-02T17:58:38.811Z,12.40
2023-05-02T18:03:41.128Z,12.30
2023-05-02T18:08:45.166Z,12.30
2023-05-02T18:13:48.520Z,12.30
2023-05-02T18:18:50.202Z,12.10
2023-05-02T18:23:51.997Z,12.10
2023-05-02T18:28:53.945Z,12.00
2023-05-02T18:33:55.755Z,11.90
2023-05-02T18:38:57.560Z,11.80
2023-05-02T18:44:00.851Z,11.70
2023-05-02T18:49:03.618Z,11.60
2023-05-02T18:54:05.398Z,11.40
2023-05-02T18:59:07.906Z,11.30
2023-05-02T19:04:16.126Z,11.10
2023-05-02T19:14:35.920Z,10.70
2023-05-02T19:19:37.649Z,10.50
2023-05-02T19:24:39.447Z,10.40
2023-05-02T19:30:09.370Z,10.20
2023-05-02T19:35:11.404Z,10.20
2023-05-02T19:40:13.399Z,9.90
2023-05-02T19:45:15.192Z,9.80
2023-05-02T19:50:16.911Z,9.70
2023-05-02T19:55:20.355Z,9.50
2023-05-02T20:00:22.153Z,9.30
2023-05-02T20:05:24.862Z,9.30
2023-05-02T20:10:26.879Z,9.00
2023-05-02T20:15:28.829Z,9.10
2023-05-02T20:20:30.777Z,8.90
2023-05-02T20:25:32.635Z,8.80
2023-05-02T20:30:36.494Z,8.70
2023-05-02T20:35:38.161Z,8.60
2023-05-02T20:40:40.296Z,8.50
2023-05-02T20:45:43.489Z,8.40
2023-05-02T20:50:53.434Z,8.40
2023-05-02T20:55:55.126Z,8.30
2023-05-02T21:00:56.787Z,8.30
2023-05-02T21:05:59.645Z,8.20
2023-05-02T21:11:01.299Z,8.40
2023-05-02T21:16:03.071Z,8.10
2023-05-02T21:21:05.794Z,8.10
2023-05-02T21:26:07.506Z,8.10
2023-05-02T21:31:09.598Z,8.20
2023-05-02T21:36:13.715Z,8.10
2023-05-02T21:41:15.407Z,8.10
2023-05-02T21:46:17.085Z,7.90
2023-05-02T21:51:18.907Z,7.80
2023-05-02T21:56:20.542Z,7.80
2023-05-02T22:01:22.266Z,7.80
2023-05-02T22:06:25.145Z,7.60
2023-05-02T22:11:28.281Z,7.40
2023-05-02T22:16:29.904Z,7.40
2023-05-02T22:21:31.667Z,7.30
2023-05-02T22:26:35.298Z,7.20
2023-05-02T22:31:37.087Z,7.10
2023-05-02T22:36:38.703Z,6.80
2023-05-02T22:41:40.332Z,6.90
2023-05-02T22:46:41.989Z,6.80
2023-05-02T22:51:45.129Z,6.80
2023-05-02T22:56:46.788Z,6.70
2023-05-02T23:01:48.471Z,6.40
2023-05-02T23:06:50.277Z,6.40
2023-05-02T23:11:52.070Z,6.40
2023-05-02T23:16:53.913Z,6.30
2023-05-02T23:21:55.622Z,6.20
2023-05-02T23:26:57.257Z,6.30
2023-05-02T23:31:59.024Z,6.20
2023-05-02T23:37:00.994Z,6.00
2023-05-02T23:42:04.321Z,5.80
2023-05-02T23:47:07.542Z,5.80
2023-05-02T23:52:09.385Z,5.70
2023-05-02T23:57:11.860Z,5.70
